METAR Data
IDs: Format: Raw Decoded Include TAF

Data at: 1242 UTC 16 Jul 2019

KSKX 161156Z AUTO 04004KT 10SM CLR 13/11 A3030 RMK AO2 SLP177 60001 70001 T01330106 10194 20117 53005 $
KSKX 161056Z AUTO 03005KT 10SM CLR 12/10 A3028 RMK AO2 SLP178 T01220100 $
KSKX 160956Z AUTO 09004KT 10SM CLR 14/11 A3028 RMK AO2 SLP165 T01440111 $
KSKX 160856Z AUTO 05007KT 10SM BKN100 15/12 A3028 RMK AO2 SLP169 60001 T01500117 56005 $
KSKX 160756Z AUTO 14007KT 10SM SCT100 SCT120 17/11 A3028 RMK AO2 RAE0659 SLP167 P0000 T01720111 $
KSKX 160656Z AUTO 11015KT 10SM -RA FEW060 BKN100 17/12 A3029 RMK AO2 PK WND 07029/0604 LTG DSNT SE TSE01B12E39RAE13B35 SLP173 P0001 T01720117 403170106 $
KSKX 160645Z AUTO 11011KT 10SM -RA FEW055 OVC100 17/12 A3028 RMK AO2 PK WND 07029/0604 LTG DSNT E TSE01B12E39RAE13B35 P0001 $
KSKX 160618Z AUTO 08021G27KT 10SM VCTS FEW080 OVC100 19/11 A3029 RMK AO2 PK WND 07029/0604 LTG DSNT E TSE01B12RAE13 P0000 $
KSKX 160607Z AUTO 07019G29KT 10SM -RA FEW080 OVC100 18/11 A3029 RMK AO2 PK WND 07029/0604 LTG DSNT E TSE01 P0000 $
KSKX 160556Z AUTO 05017G22KT 10SM VCTS -RA OVC090 20/11 A3030 RMK AO2 LTG DSNT NE TSB32RAB51 SLP178 P0000 60000 T02000111 10311 20194 51020 $
KSKX 160538Z AUTO 07009KT 10SM VCTS OVC095 19/11 A3030 RMK AO2 LTG DSNT N TSB32 $
KSKX 160456Z AUTO 10015KT 10SM OVC100 21/11 A3027 RMK AO2 TSB04E19RAE30 SLP165 P0000 T02060106 $
KSKX 160425Z AUTO 10012G15KT 10SM -RA FEW075 SCT085 BKN110 21/12 A3026 RMK AO2 TSB04E19 P0000 $
KSKX 160410Z AUTO 08006KT 10SM VCTS -RA BKN090 OVC110 22/11 A3027 RMK AO2 LTG DSNT N TSB04 P0000 $
KSKX 160356Z AUTO 08005KT 10SM -RA OVC095 24/09 A3028 RMK AO2 RAB53 SLP169 P0000 T02390089 $
KSKX 160256Z AUTO 13011KT 10SM OVC110 25/08 A3023 RMK AO2 SLP154 T02500083 53008 $
KSKX 160156Z AUTO 11017G24KT 10SM BKN110 26/09 A3021 RMK AO2 SLP153 T02560094 $
KSKX 160056Z AUTO 14003KT 10SM CLR 29/04 A3019 RMK AO2 SLP142 T02940044 $
KSKX 152356Z AUTO VRB05KT 10SM CLR 31/04 A3020 RMK AO2 SLP145 T03060039 10317 20244 56012 $
KSKX 152256Z AUTO 28011KT 10SM CLR 28/07 A3021 RMK AO2 SLP155 T02830072 $
KSKX 152156Z AUTO 30012G16KT 10SM CLR 32/05 A3022 RMK AO2 LTG DSNT W SLP150 T03170050 $
KSKX 152056Z AUTO VRB04KT 10SM CLR 31/07 A3024 RMK AO2 LTG DSNT NE AND E AND W SLP159 T03060067 58025 $
KSKX 151956Z AUTO VRB04KT 10SM CLR 29/08 A3028 RMK AO2 SLP171 T02890083 $
KSKX 151856Z AUTO 30007KT 270V350 10SM CLR 27/11 A3030 RMK AO2 SLP185 T02670106 $
KSKX 151756Z AUTO 32006KT 10SM CLR 24/11 A3033 RMK AO2 SLP197 T02440106 10244 20106 56013 $
KSKX 151656Z AUTO 22004KT 10SM CLR 23/12 A3035 RMK AO2 SLP205 T02330117 $
KSKX 151556Z AUTO 32005KT 10SM CLR 20/12 A3036 RMK AO2 SLP218 T02000122 $
KSKX 151531Z AUTO VRB04KT 10SM FEW001 19/12 A3037 RMK AO2 $
KSKX 151456Z AUTO 35003KT 10SM CLR 18/12 A3038 RMK AO2 SLP228 T01780122 50003 $
KSKX 151356Z AUTO 00000KT 10SM CLR 16/12 A3038 RMK AO2 SLP225 T01560117 $
KSKX 151256Z AUTO 00000KT 10SM CLR 13/11 A3038 RMK AO2 SLP226 T01330111 $
KSKX 151156Z AUTO 14006KT 10SM CLR 12/10 A3037 RMK AO2 SLP213 70017 T01170100 10156 20111 53001 $
KSKX 151056Z AUTO 02006KT 10SM CLR 11/11 A3036 RMK AO2 SLP204 T01110106 $
KSKX 150956Z AUTO 01006KT 10SM CLR 12/11 A3035 RMK AO2 SLP198 T01220111 $
KSKX 150856Z AUTO 06004KT 10SM CLR 13/12 A3036 RMK AO2 SLP204 T01280122 58006 $
KSKX 150756Z AUTO 04007KT 10SM CLR 14/13 A3038 RMK AO2 SLP206 T01390128 $
KSKX 150656Z AUTO 10SM CLR 14/13 A3039 RMK AO2 SLP208 T01440133 403060106 $
KSKX 150556Z AUTO 10SM CLR 16/13 A3039 RMK AO2 SLP208 60017 T01560128 10267 20150 58014 $
KSKX 150456Z AUTO 16013KT 10SM FEW110 15/13 A3039 RMK AO2 RAE46 SLP212 P0003 T01500133 $
KSKX 150356Z AUTO 07010KT 10SM RA OVC080 16/13 A3045 RMK AO2 LTG DSNT SE TSE06 SLP238 P0010 T01560133 $
KSKX 150312Z AUTO 02010KT 10SM RA FEW070 OVC085 16/13 A3044 RMK AO2 LTG DSNT SE AND S TSE06 P0003 $
KSKX 150256Z AUTO 35010KT 10SM VCTS -RA OVC085 16/13 A3044 RMK AO2 PK WND 31029/0219 WSHFT 0206 LTG DSNT E-S RAB10 SLP240 P0004 60004 T01560133 53034 $
KSKX 150226Z AUTO 32015G29KT 10SM -TSRA OVC085 17/13 A3042 RMK AO2 PK WND 31029/0219 WSHFT 0206 LTG DSNT NE AND S AND SW RAB10 PRESRR P0002 $
KSKX 150156Z AUTO 01021G24KT 10SM VCTS CLR 20/10 A3034 RMK AO2 LTG DSNT E AND SW AND W TSB45 SLP204 T02000100 $
KSKX 150151Z AUTO 01020G24KT 10SM VCTS FEW090 20/10 A3034 RMK AO2 LTG DSNT E AND SW AND W TSB45 $
KSKX 150056Z AUTO 36017G25KT 10SM FEW090 SCT110 21/11 A3031 RMK AO2 PK WND 34028/0020 WSHFT 0003 LTG DSNT SW-NW TSB2357E29 SLP201 T02110111 $